createdAt,value
2019-03-11T00:00:35.976Z,2.20
2019-03-11T00:03:05.180Z,2.25
2019-03-11T00:05:33.820Z,1.52
2019-03-11T00:08:02.420Z,2.83
2019-03-11T00:10:31.060Z,2.55
2019-03-11T00:12:59.715Z,2.67
2019-03-11T00:15:28.587Z,2.37
2019-03-11T00:17:57.216Z,2.08
2019-03-11T00:20:25.850Z,1.82
2019-03-11T00:22:54.521Z,2.12
2019-03-11T00:25:23.016Z,1.82
2019-03-11T00:27:51.515Z,2.25
2019-03-11T00:30:20.184Z,2.80
2019-03-11T00:32:48.676Z,1.87
2019-03-11T00:35:17.309Z,2.67
2019-03-11T00:37:45.980Z,2.27
2019-03-11T00:40:15.816Z,2.75
2019-03-11T00:42:44.372Z,2.92
2019-03-11T00:45:15.007Z,2.05
2019-03-11T00:47:43.742Z,1.77
2019-03-11T00:50:13.278Z,1.70
2019-03-11T00:52:42.036Z,1.35
2019-03-11T00:55:12.721Z,1.60
2019-03-11T00:57:41.354Z,1.60
2019-03-11T01:00:15.784Z,1.45
2019-03-11T01:02:44.344Z,1.20
2019-03-11T01:05:13.064Z,1.98
2019-03-11T01:07:41.744Z,1.90
2019-03-11T01:10:10.580Z,3.60
2019-03-11T01:12:39.222Z,2.83
2019-03-11T01:15:10.062Z,2.42
2019-03-11T01:17:38.553Z,2.22
2019-03-11T01:20:09.487Z,2.22
2019-03-11T01:22:38.227Z,3.12
2019-03-11T01:25:08.555Z,2.77
2019-03-11T01:27:37.048Z,1.87
2019-03-11T01:30:09.031Z,1.82
2019-03-11T01:32:37.668Z,1.60
2019-03-11T01:35:07.594Z,1.42
2019-03-11T01:37:36.202Z,1.40
2019-03-11T01:40:07.271Z,1.00
2019-03-11T01:42:35.898Z,1.37
2019-03-11T01:45:07.416Z,0.90
2019-03-11T01:47:35.903Z,1.52
2019-03-11T01:50:06.136Z,2.35
2019-03-11T01:52:34.687Z,1.40
2019-03-11T01:55:03.726Z,1.40
2019-03-11T01:57:32.435Z,1.62
2019-03-11T02:00:00.993Z,1.60
2019-03-11T02:02:29.482Z,1.20
2019-03-11T02:04:58.109Z,1.10
2019-03-11T02:07:26.775Z,1.40
2019-03-11T02:09:55.273Z,1.00
2019-03-11T02:12:23.838Z,1.40
2019-03-11T02:14:52.551Z,1.57
2019-03-11T02:17:21.181Z,1.25
2019-03-11T02:19:49.745Z,0.90
2019-03-11T02:22:18.284Z,1.40
2019-03-11T02:24:46.916Z,1.98
2019-03-11T02:27:15.551Z,1.55
2019-03-11T02:29:44.083Z,1.52
2019-03-11T02:32:12.640Z,1.37
2019-03-11T02:34:41.302Z,1.35
2019-03-11T02:37:10.008Z,1.55
2019-03-11T02:39:38.497Z,0.72
2019-03-11T02:42:06.986Z,1.22
2019-03-11T02:44:35.650Z,1.20
2019-03-11T02:47:04.498Z,1.37
2019-03-11T02:49:32.981Z,1.50
2019-03-11T02:52:01.512Z,1.70
2019-03-11T02:54:30.143Z,0.75
2019-03-11T02:57:15.037Z,1.02
2019-03-11T02:59:43.567Z,0.70
2019-03-11T03:02:13.766Z,0.70
2019-03-11T03:04:44.028Z,1.07
2019-03-11T03:07:12.657Z,0.80
2019-03-11T03:09:41.263Z,0.57
2019-03-11T03:12:09.894Z,0.65
2019-03-11T03:14:38.384Z,0.70
2019-03-11T03:17:06.945Z,1.00
2019-03-11T03:19:35.572Z,0.72
2019-03-11T03:22:04.243Z,1.00
2019-03-11T03:24:32.789Z,0.90
2019-03-11T03:27:01.285Z,0.72
2019-03-11T03:29:29.953Z,0.82
2019-03-11T03:31:58.600Z,0.88
2019-03-11T03:34:27.072Z,0.90
2019-03-11T03:36:55.605Z,0.90
2019-03-11T03:39:24.233Z,0.60
2019-03-11T03:41:52.859Z,0.80
2019-03-11T03:44:21.386Z,1.20
2019-03-11T03:46:50.013Z,0.90
2019-03-11T03:49:18.641Z,0.90
2019-03-11T03:51:47.162Z,1.10
2019-03-11T03:54:15.799Z,1.25
2019-03-11T03:56:44.507Z,0.88
2019-03-11T03:59:13.146Z,1.15
2019-03-11T04:01:41.699Z,0.90
2019-03-11T04:04:10.318Z,0.88
2019-03-11T04:06:38.982Z,1.12
2019-03-11T04:09:07.531Z,1.00
2019-03-11T04:11:36.085Z,0.90
2019-03-11T04:14:04.710Z,1.00
2019-03-11T04:16:33.340Z,1.02
2019-03-11T04:19:01.958Z,1.42
2019-03-11T04:21:30.526Z,1.20
2019-03-11T04:23:59.149Z,1.05
2019-03-11T04:26:28.683Z,1.20
2019-03-11T04:28:57.758Z,1.32
2019-03-11T04:31:26.387Z,1.40
2019-03-11T04:33:55.152Z,1.60
2019-03-11T04:36:23.942Z,1.77
2019-03-11T04:38:52.657Z,1.55
2019-03-11T04:41:21.324Z,2.05
2019-03-11T04:43:49.827Z,1.82
2019-03-11T04:46:18.326Z,1.98
2019-03-11T04:48:46.994Z,1.67
2019-03-11T04:51:15.627Z,1.37
2019-03-11T04:53:44.117Z,1.80
2019-03-11T04:56:12.641Z,1.60
2019-03-11T04:58:41.327Z,1.60
2019-03-11T05:01:09.959Z,2.55
2019-03-11T05:03:38.558Z,1.90
2019-03-11T05:06:07.044Z,2.60
2019-03-11T05:08:35.681Z,3.47
2019-03-11T05:11:04.352Z,3.52
2019-03-11T05:13:32.984Z,4.42
2019-03-11T05:16:01.619Z,3.50
2019-03-11T05:18:30.231Z,4.70
2019-03-11T05:20:58.802Z,4.42
2019-03-11T05:23:27.434Z,5.53
2019-03-11T05:25:56.122Z,6.87
2019-03-11T05:28:24.681Z,7.17
2019-03-11T05:30:53.312Z,6.92
2019-03-11T05:33:21.978Z,6.33
2019-03-11T05:35:50.615Z,6.00
2019-03-11T05:38:19.112Z,5.65
2019-03-11T05:40:47.642Z,4.20
2019-03-11T05:43:16.262Z,3.60
2019-03-11T05:45:44.893Z,3.70
2019-03-11T05:48:13.501Z,5.50
2019-03-11T05:50:42.144Z,5.67
2019-03-11T05:53:10.651Z,5.42
2019-03-11T05:55:39.207Z,7.03
2019-03-11T05:58:07.804Z,6.67
2019-03-11T06:00:36.443Z,7.20
2019-03-11T06:03:05.044Z,5.08
2019-03-11T06:05:33.684Z,6.42
2019-03-11T06:08:02.325Z,5.70
2019-03-11T06:10:30.995Z,5.25
2019-03-11T06:12:59.487Z,4.30
2019-03-11T06:15:27.986Z,4.92
2019-03-11T06:17:56.658Z,5.40
2019-03-11T06:20:32.911Z,4.90
2019-03-11T06:23:03.082Z,4.28
2019-03-11T06:25:31.656Z,2.90
2019-03-11T06:28:00.278Z,3.00
2019-03-11T06:30:29.260Z,3.60
2019-03-11T06:32:58.031Z,3.60
2019-03-11T06:35:26.715Z,2.20
2019-03-11T06:37:55.257Z,2.47
2019-03-11T06:40:23.830Z,3.42
2019-03-11T06:42:52.862Z,5.53
2019-03-11T06:45:21.525Z,3.72
2019-03-11T06:47:50.170Z,3.22
2019-03-11T06:50:18.735Z,3.20
2019-03-11T06:52:47.400Z,2.90
2019-03-11T06:55:16.038Z,5.08
2019-03-11T06:57:44.606Z,3.22
2019-03-11T07:00:20.493Z,2.70
2019-03-11T07:02:49.227Z,1.72
2019-03-11T07:05:20.537Z,1.65
2019-03-11T07:07:48.305Z,0.93
2019-03-11T07:10:17.534Z,1.17
2019-03-11T07:12:46.050Z,0.90
2019-03-11T07:15:16.024Z,1.20
2019-03-11T07:17:45.161Z,1.85
2019-03-11T07:20:20.365Z,1.20
2019-03-11T07:22:48.893Z,1.40
2019-03-11T07:25:17.452Z,1.85
2019-03-11T07:27:46.080Z,1.25
2019-03-11T07:30:19.795Z,2.20
2019-03-11T07:32:48.354Z,2.70
2019-03-11T07:35:17.157Z,1.52
2019-03-11T07:37:45.843Z,1.62
2019-03-11T07:40:15.972Z,1.35
2019-03-11T07:42:44.704Z,1.65
2019-03-11T07:45:15.464Z,2.35
2019-03-11T07:47:44.165Z,1.40
2019-03-11T07:50:15.132Z,1.27
2019-03-11T07:52:43.763Z,1.65
2019-03-11T07:55:13.502Z,0.95
2019-03-11T07:57:42.165Z,1.75
2019-03-11T08:00:16.563Z,1.10
2019-03-11T08:02:45.194Z,1.20
2019-03-11T08:05:14.030Z,1.35
2019-03-11T08:07:48.888Z,1.37
2019-03-11T08:10:23.380Z,1.20
2019-03-11T08:12:52.147Z,1.00
2019-03-11T08:15:20.775Z,0.80
2019-03-11T08:17:49.375Z,1.12
2019-03-11T08:20:18.811Z,2.00
2019-03-11T08:22:47.438Z,1.00
2019-03-11T08:25:16.511Z,0.88
2019-03-11T08:27:45.246Z,0.90
2019-03-11T08:30:19.758Z,1.32
2019-03-11T08:32:48.425Z,0.90
2019-03-11T08:35:17.159Z,1.05
2019-03-11T08:37:45.902Z,1.35
2019-03-11T08:40:29.083Z,1.12
2019-03-11T08:42:57.764Z,0.60
2019-03-11T08:45:26.394Z,0.72
2019-03-11T08:47:55.068Z,1.20
2019-03-11T08:50:26.687Z,0.70
2019-03-11T08:52:55.319Z,0.80
2019-03-11T08:55:23.952Z,1.40
2019-03-11T08:57:52.529Z,1.00
2019-03-11T09:00:24.600Z,1.17
2019-03-11T09:02:53.221Z,1.25
2019-03-11T09:05:21.843Z,0.70
2019-03-11T09:07:53.894Z,1.40
2019-03-11T09:10:22.577Z,0.70
2019-03-11T09:12:51.260Z,0.53
2019-03-11T09:15:21.126Z,0.95
2019-03-11T09:17:49.728Z,0.72
2019-03-11T09:20:18.868Z,0.80
2019-03-11T09:22:47.513Z,1.50
2019-03-11T09:25:29.459Z,0.65
2019-03-11T09:27:58.098Z,1.07
2019-03-11T09:30:26.841Z,0.80
2019-03-11T09:32:55.529Z,0.60
2019-03-11T09:35:24.103Z,0.50
2019-03-11T09:37:52.741Z,0.80
2019-03-11T09:40:32.255Z,0.60
2019-03-11T09:42:52.228Z,0.60
2019-03-11T09:45:20.851Z,0.68
2019-03-11T09:47:49.538Z,0.55
2019-03-11T09:50:18.470Z,0.50
2019-03-11T09:52:46.984Z,0.60
2019-03-11T09:55:20.776Z,0.60
2019-03-11T09:57:49.752Z,0.50
2019-03-11T10:00:25.929Z,0.78
2019-03-11T10:02:54.487Z,0.80
2019-03-11T10:05:23.241Z,0.65
2019-03-11T10:07:52.012Z,0.85
2019-03-11T10:10:25.366Z,0.70
2019-03-11T10:12:56.977Z,0.70
2019-03-11T10:15:25.703Z,1.22
2019-03-11T10:17:54.350Z,0.82
2019-03-11T10:20:22.933Z,0.65
2019-03-11T10:22:51.575Z,1.27
2019-03-11T10:25:21.213Z,0.50
2019-03-11T10:27:50.505Z,0.70
2019-03-11T10:30:23.654Z,0.75
2019-03-11T10:32:52.305Z,0.60
2019-03-11T10:35:32.007Z,0.80
2019-03-11T10:37:51.359Z,0.80
2019-03-11T10:40:24.240Z,0.40
2019-03-11T10:42:52.920Z,0.50
2019-03-11T10:45:32.229Z,0.60
2019-03-11T10:48:00.787Z,0.60
2019-03-11T10:50:29.427Z,0.60
2019-03-11T10:52:58.056Z,0.93
2019-03-11T10:55:27.638Z,0.60
2019-03-11T10:57:56.267Z,0.80
2019-03-11T11:00:27.567Z,0.80
2019-03-11T11:02:56.163Z,0.60
2019-03-11T11:05:24.789Z,0.60
2019-03-11T11:07:53.722Z,0.50
2019-03-11T11:10:22.590Z,0.62
2019-03-11T11:12:51.297Z,0.50
2019-03-11T11:15:24.698Z,0.50
2019-03-11T11:17:53.481Z,0.65
2019-03-11T11:20:23.339Z,0.65
2019-03-11T11:22:53.438Z,0.50
2019-03-11T11:25:23.308Z,0.60
2019-03-11T11:27:51.874Z,0.50
2019-03-11T11:30:30.701Z,0.45
2019-03-11T11:32:59.275Z,0.60
2019-03-11T11:35:27.905Z,0.40
2019-03-11T11:37:56.826Z,0.50
2019-03-11T11:40:29.476Z,0.55
2019-03-11T11:42:58.121Z,0.70
2019-03-11T11:45:27.988Z,0.50
2019-03-11T11:47:56.625Z,0.50
2019-03-11T11:50:25.749Z,0.60
2019-03-11T11:52:54.735Z,0.40
2019-03-11T11:55:26.044Z,0.40
2019-03-11T11:57:54.680Z,0.50
2019-03-11T12:00:40.145Z,0.50
2019-03-11T12:03:08.775Z,0.40
2019-03-11T12:05:37.345Z,0.50
2019-03-11T12:08:06.078Z,0.70
2019-03-11T12:10:35.002Z,0.42
2019-03-11T12:13:03.636Z,0.50
2019-03-11T12:15:32.298Z,0.50
2019-03-11T12:18:00.946Z,0.60
2019-03-11T12:20:30.685Z,0.60
2019-03-11T12:22:59.469Z,0.50
2019-03-11T12:25:28.096Z,0.60
2019-03-11T12:27:58.168Z,0.70
2019-03-11T12:30:34.322Z,0.60
2019-03-11T12:33:02.980Z,0.42
2019-03-11T12:35:31.605Z,0.53
2019-03-11T12:38:02.981Z,0.60
2019-03-11T12:40:31.718Z,0.70
2019-03-11T12:43:00.341Z,1.37
2019-03-11T12:45:29.053Z,0.88
2019-03-11T12:47:57.683Z,0.62
2019-03-11T12:50:30.575Z,0.57
2019-03-11T12:52:59.271Z,0.57
2019-03-11T12:55:27.998Z,0.60
2019-03-11T12:57:56.632Z,0.55
2019-03-11T13:00:28.288Z,0.60
2019-03-11T13:02:56.921Z,0.88
2019-03-11T13:05:25.628Z,1.17
2019-03-11T13:07:54.295Z,0.50
2019-03-11T13:10:25.841Z,0.50
2019-03-11T13:12:54.565Z,0.53
2019-03-11T13:15:23.413Z,0.90
2019-03-11T13:17:52.046Z,0.50
2019-03-11T13:20:41.929Z,0.80
2019-03-11T13:23:10.568Z,0.70
2019-03-11T13:25:40.150Z,0.60
2019-03-11T13:28:08.829Z,1.87
2019-03-11T13:30:37.453Z,0.80
2019-03-11T13:33:06.093Z,0.70
2019-03-11T13:35:34.725Z,0.78
2019-03-11T13:38:03.461Z,0.70
2019-03-11T13:40:32.094Z,1.82
2019-03-11T13:43:00.727Z,1.10
2019-03-11T13:45:29.361Z,1.12
2019-03-11T13:47:57.985Z,1.70
2019-03-11T13:50:26.615Z,1.50
2019-03-11T13:52:55.288Z,1.20
2019-03-11T13:55:23.915Z,1.05
2019-03-11T13:57:52.748Z,2.08
2019-03-11T14:00:22.021Z,2.00
2019-03-11T14:02:50.656Z,3.85
2019-03-11T14:05:19.527Z,2.33
2019-03-11T14:07:48.153Z,2.45
2019-03-11T14:10:17.381Z,1.95
2019-03-11T14:12:46.014Z,1.30
2019-03-11T14:15:18.875Z,0.85
2019-03-11T14:17:47.719Z,1.30
2019-03-11T14:20:16.857Z,1.82
2019-03-11T14:22:45.502Z,1.85
2019-03-11T14:25:15.188Z,1.70
2019-03-11T14:27:43.814Z,2.60
2019-03-11T14:30:18.239Z,2.00
2019-03-11T14:32:46.926Z,2.70
2019-03-11T14:35:15.556Z,2.60
2019-03-11T14:37:44.195Z,2.15
2019-03-11T14:40:17.072Z,1.55
2019-03-11T14:42:45.720Z,1.50
2019-03-11T14:45:22.733Z,1.70
2019-03-11T14:47:51.653Z,2.90
2019-03-11T14:50:20.306Z,2.05
2019-03-11T14:52:48.974Z,2.37
2019-03-11T14:55:17.605Z,3.47
2019-03-11T14:57:46.235Z,2.77
2019-03-11T15:00:21.663Z,3.30
2019-03-11T15:02:50.302Z,3.85
2019-03-11T15:05:19.537Z,4.05
2019-03-11T15:07:48.702Z,4.12
2019-03-11T15:10:18.414Z,3.95
2019-03-11T15:12:47.707Z,4.12
2019-03-11T15:15:20.991Z,4.55
2019-03-11T15:17:49.625Z,5.08
2019-03-11T15:20:18.662Z,4.80
2019-03-11T15:22:47.441Z,3.33
2019-03-11T15:25:16.469Z,3.50
2019-03-11T15:27:45.099Z,4.50
2019-03-11T15:30:27.608Z,4.80
2019-03-11T15:32:56.291Z,4.00
2019-03-11T15:35:24.928Z,4.35
2019-03-11T15:37:53.773Z,4.00
2019-03-11T15:40:22.501Z,3.80
2019-03-11T15:42:51.194Z,4.00
2019-03-11T15:45:20.341Z,3.55
2019-03-11T15:47:49.068Z,3.00
2019-03-11T15:50:26.722Z,3.92
2019-03-11T15:52:55.428Z,4.17
2019-03-11T15:55:24.224Z,6.42
2019-03-11T15:57:52.976Z,3.65
2019-03-11T16:00:22.697Z,5.28
2019-03-11T16:02:51.390Z,4.30
2019-03-11T16:05:21.763Z,4.28
2019-03-11T16:07:59.766Z,4.35
2019-03-11T16:10:28.610Z,4.47
2019-03-11T16:12:57.320Z,4.95
2019-03-11T16:15:26.017Z,5.03
2019-03-11T16:17:54.773Z,4.97
2019-03-11T16:20:24.993Z,4.20
2019-03-11T16:22:53.702Z,4.95
2019-03-11T16:25:22.685Z,3.83
2019-03-11T16:27:51.402Z,5.10
2019-03-11T16:30:24.317Z,5.08
2019-03-11T16:32:59.849Z,4.80
2019-03-11T16:35:26.235Z,5.78
2019-03-11T16:37:55.124Z,5.17
2019-03-11T16:40:24.024Z,6.25
2019-03-11T16:42:52.723Z,8.08
2019-03-11T16:45:21.638Z,4.53
2019-03-11T16:47:50.588Z,2.62
2019-03-11T16:50:26.987Z,3.02
2019-03-11T16:52:56.017Z,4.20
2019-03-11T16:55:32.720Z,4.20
2019-03-11T16:58:01.467Z,3.98
2019-03-11T17:00:31.727Z,4.75
2019-03-11T17:03:00.439Z,5.85
2019-03-11T17:05:29.226Z,6.22
2019-03-11T17:07:57.945Z,6.95
2019-03-11T17:10:26.633Z,5.60
2019-03-11T17:15:29.335Z,3.92
2019-03-11T17:17:58.033Z,5.40
2019-03-11T17:20:26.743Z,6.67
2019-03-11T17:22:55.492Z,5.40
2019-03-11T17:25:24.197Z,3.45
2019-03-11T17:27:52.890Z,5.28
2019-03-11T17:30:26.570Z,4.95
2019-03-11T17:32:55.285Z,5.62
2019-03-11T17:35:24.099Z,4.37
2019-03-11T17:37:52.849Z,3.65
2019-03-11T17:40:25.239Z,4.42
2019-03-11T17:42:54.402Z,5.78
2019-03-11T17:45:26.239Z,5.35
2019-03-11T17:47:54.874Z,4.08
2019-03-11T17:50:24.483Z,5.40
2019-03-11T17:52:53.325Z,3.62
2019-03-11T17:55:22.051Z,5.12
2019-03-11T17:57:50.747Z,5.20
2019-03-11T18:00:26.137Z,4.55
2019-03-11T18:02:55.149Z,4.10
2019-03-11T18:05:24.032Z,4.10
2019-03-11T18:07:54.338Z,5.62
2019-03-11T18:10:23.127Z,3.70
2019-03-11T18:12:51.762Z,5.67
2019-03-11T18:15:20.444Z,4.97
2019-03-11T18:17:51.874Z,5.87
2019-03-11T18:20:21.374Z,6.95
2019-03-11T18:22:50.363Z,5.70
2019-03-11T18:25:20.828Z,5.65
2019-03-11T18:27:49.659Z,7.10
2019-03-11T18:30:20.800Z,7.78
2019-03-11T18:32:49.687Z,8.18
2019-03-11T18:35:18.681Z,8.13
2019-03-11T18:37:47.378Z,5.53
2019-03-11T18:40:17.480Z,7.10
2019-03-11T18:42:46.215Z,5.62
2019-03-11T18:45:15.680Z,5.35
2019-03-11T18:47:44.607Z,3.72
2019-03-11T18:50:25.912Z,2.27
2019-03-11T18:52:54.540Z,2.47
2019-03-11T18:55:23.168Z,2.98
2019-03-11T18:57:51.948Z,3.55
2019-03-11T19:00:21.744Z,4.75
2019-03-11T19:02:50.576Z,6.47
2019-03-11T19:05:24.036Z,5.97
2019-03-11T19:07:55.162Z,7.05
2019-03-11T19:10:23.227Z,6.62
2019-03-11T19:12:51.991Z,6.15
2019-03-11T19:15:26.703Z,4.83
2019-03-11T19:17:55.347Z,3.72
2019-03-11T19:20:24.881Z,4.05
2019-03-11T19:22:56.488Z,3.30
2019-03-11T19:25:25.114Z,3.33
2019-03-11T19:27:53.712Z,3.20
2019-03-11T19:30:28.757Z,2.02
2019-03-11T19:32:57.399Z,2.42
2019-03-11T19:35:26.040Z,3.12
2019-03-11T19:37:54.725Z,2.60
2019-03-11T19:40:24.730Z,3.77
2019-03-11T19:42:53.351Z,2.90
2019-03-11T19:45:22.015Z,2.98
2019-03-11T19:47:50.746Z,3.12
2019-03-11T19:50:19.978Z,2.50
2019-03-11T19:52:58.326Z,3.42
2019-03-11T19:55:21.982Z,4.30
2019-03-11T19:57:50.605Z,3.33
2019-03-11T20:00:24.214Z,3.50
2019-03-11T20:02:52.939Z,3.92
2019-03-11T20:05:24.440Z,3.65
2019-03-11T20:07:53.119Z,3.85
2019-03-11T20:10:21.937Z,3.58
2019-03-11T20:12:50.528Z,4.50
2019-03-11T20:15:19.129Z,5.17
2019-03-11T20:17:47.844Z,5.08
2019-03-11T20:20:17.958Z,3.95
2019-03-11T20:22:47.391Z,4.87
2019-03-11T20:25:24.788Z,3.98
2019-03-11T20:27:53.438Z,4.25
2019-03-11T20:30:23.231Z,4.60
2019-03-11T20:32:52.147Z,4.70
2019-03-11T20:35:20.785Z,4.03
2019-03-11T20:37:49.401Z,3.02
2019-03-11T20:40:18.036Z,2.20
2019-03-11T20:42:46.547Z,2.60
2019-03-11T20:45:16.465Z,2.15
2019-03-11T20:47:45.094Z,2.05
2019-03-11T20:50:18.385Z,2.50
2019-03-11T20:52:47.076Z,2.00
2019-03-11T20:55:19.771Z,1.82
2019-03-11T20:57:48.432Z,2.87
2019-03-11T21:00:23.692Z,2.40
2019-03-11T21:02:52.776Z,2.08
2019-03-11T21:05:35.565Z,2.83
2019-03-11T21:08:04.239Z,3.30
2019-03-11T21:10:32.947Z,3.05
2019-03-11T21:13:01.643Z,3.08
2019-03-11T21:15:30.287Z,2.83
2019-03-11T21:17:58.867Z,4.05
2019-03-11T21:20:27.723Z,3.70
2019-03-11T21:23:02.297Z,4.33
2019-03-11T21:25:30.823Z,3.77
2019-03-11T21:27:59.483Z,4.17
2019-03-11T21:30:28.078Z,3.83
2019-03-11T21:32:56.739Z,3.40
2019-03-11T21:35:25.546Z,3.20
2019-03-11T21:37:54.429Z,2.17
2019-03-11T21:40:24.061Z,2.10
2019-03-11T21:42:52.862Z,1.80
2019-03-11T21:45:33.538Z,1.65
2019-03-11T21:47:51.992Z,1.53
2019-03-11T21:50:28.587Z,1.95
2019-03-11T21:52:57.402Z,2.00
2019-03-11T21:55:26.074Z,1.85
2019-03-11T21:57:54.775Z,1.87
2019-03-11T22:00:33.950Z,1.62
2019-03-11T22:02:54.638Z,1.98
2019-03-11T22:05:23.335Z,1.60
2019-03-11T22:07:51.895Z,2.08
2019-03-11T22:10:21.162Z,1.83
2019-03-11T22:12:49.817Z,1.57
2019-03-11T22:15:25.924Z,2.00
2019-03-11T22:17:54.483Z,1.90
2019-03-11T22:20:23.035Z,1.10
2019-03-11T22:22:51.702Z,1.80
2019-03-11T22:25:21.237Z,1.57
2019-03-11T22:27:49.861Z,1.83
2019-03-11T22:30:21.464Z,2.07
2019-03-11T22:32:50.084Z,2.40
2019-03-11T22:35:18.821Z,2.05
2019-03-11T22:37:56.615Z,2.10
2019-03-11T22:40:25.233Z,2.03
2019-03-11T22:42:53.795Z,2.10
2019-03-11T22:45:22.760Z,2.60
2019-03-11T22:47:51.798Z,2.55
2019-03-11T22:50:21.218Z,2.60
2019-03-11T22:52:49.900Z,2.80
2019-03-11T22:55:19.636Z,3.20
2019-03-11T22:57:48.376Z,2.40
2019-03-11T23:00:33.547Z,1.80
2019-03-11T23:03:02.172Z,1.47
2019-03-11T23:05:30.799Z,1.80
2019-03-11T23:07:59.473Z,1.40
2019-03-11T23:10:28.096Z,0.90
2019-03-11T23:12:56.656Z,1.20
2019-03-11T23:15:25.332Z,1.10
2019-03-11T23:17:53.953Z,1.00
2019-03-11T23:20:22.590Z,1.03
2019-03-11T23:22:51.199Z,0.97
2019-03-11T23:25:19.835Z,1.07
2019-03-11T23:27:48.471Z,1.00
2019-03-11T23:30:17.142Z,1.37
2019-03-11T23:32:45.695Z,0.97
2019-03-11T23:35:14.324Z,0.70
2019-03-11T23:37:42.908Z,0.80
2019-03-11T23:40:11.523Z,0.70
2019-03-11T23:42:40.188Z,0.60
2019-03-11T23:45:10.811Z,0.70
2019-03-11T23:47:39.408Z,0.60
2019-03-11T23:50:12.158Z,0.50
2019-03-11T23:52:40.714Z,0.53
2019-03-11T23:55:11.636Z,0.60
2019-03-11T23:57:40.200Z,0.60
